Accueil
METAR-TAF:

METAR-TAF

Aéroports :

Cologne, Allemagne

Aéroport Cologne/Bonn

latitude: 50-52N, longitude: 007-10E, altitude: 91 m

Observation

Le bulletin a été fait il y a 33 minutes, à 01:20 UTC
Vent 10 kt de ouest
Température 15°C
Humidité 77%
Pression 1017 hPa
Visibilité 10 km ou plus
pas de nuages en-dessous de 1500 mètres et pas de cumulonimbus.

METAR: EDDK 240120Z 26010KT CAVOK 15/11 Q1017 NOSIG

Heure: 03:53 (01:53 UTC)

Prévision

Le bulletin a été fait il y a 2 heures et 2 minutes, à 23:51 UTC
Prévision valable du 24 à 00 UTC au 25 à 06 UTC
Vent 8 kt de ouest/sud-ouest
Visibilité 10 km ou plus
pas de nuages en-dessous de 1500 mètres et pas de cumulonimbus.
Evoluant progressivement
du 24 à 07 UTC au 24 à 09 UTC
Vent 13 kt de ouest/sud-ouest
Evoluant progressivement
du 24 à 18 UTC au 24 à 21 UTC
Vent 6 kt de ouest

TAF: EDDK 232351Z 2400/2506 25008KT CAVOK BECMG 2407/2409 25013KT BECMG 2418/2421 26006KT

Observations et prévisions météorologiques de plus de 4000 aéroports (messages METAR et TAF).

Les stations disponibles sont représentées par des disques jaunes et rouges sur la carte.

Passer la souris dessus pour voir le nom de la station.

Cliquer dessus pour voir les observations et prévisions météorologiques.

Pour changer de carte: cliquez sur les boutons verts avec une croix noire pour zoomer, sur le bouton vert avec un tiret pour effectuer un zoom arrière, ou sur les flèches vertes pour les cartes adjacentes.


METAR-TAF: